Norah Head, New South Wales

8:38 AM AEST on June 03, 2015 (GMT +1000)
Woongarrah | | Change Station
CLOSE
Current Station
Personal Weather Station
Location: Woongarrah, NEW SOUTH WALES
Elevation: 95 ft
Nearby Weather Stations

Elev 95 ft 33.25 °S, 151.48 °E | Updated 6 minutes ago

Partly Cloudy
Partly Cloudy
49.9 °F
Feels Like 49 °F
N
4.0
Wind Variable Wind from WSW
Gusts 7.0 mph

Today
High -- | Low -- °F
--% Chance of Precip.
Yesterday
High -- | Low -- °F
Precip. -- in
6:49 AM 4:53 PM
Full, 100% visible
Pressure 30.18 in
Visibility 6.2 miles
Clouds Few 2000 ft
Windchill 49 °F
Dew Point 40 °F
Humidity 70%
Rainfall 0.00 in
Snow Depth Not available.
UV 1 out of 12
Pollen Not available.
Air Quality Not available.
Flu Activity Not available.
METAR YWLM 022200Z 30013KT 9999 FEW020 07/03 Q1022 NOSIG

More Conditions Fewer Conditions

Pressure 30.18 in
Visibility 6.2 miles
Clouds Few 2000 ft
Windchill 49 °F
Dew Point 40 °F
Humidity 70%
Rainfall 0.00 in
Snow Depth Not available.
UV 1 out of 12
Pollen Not available.
Air Quality Not available.
Flu Activity Not available.
METAR YWLM 022200Z 30013KT 9999 FEW020 07/03 Q1022 NOSIG

More Conditions Fewer Conditions

10-Day Weather Forecast

×

Almanac

Astronomy

Jun. 03, 2015 Rise Set
Actual Time
Civil Twilight
Nautical Twilight
Astronomical Twilight
Moon
Length of Visible Light
Length of Day
Tomorrow will be .
, % of the Moon is Illuminated

Today's Extremes

Country Highs Country Lows

Community

WunderPhotos

Upload Photos

1,826,049 photos uploaded!

WunderBlogs® & News

Nearby

Air Quality

  Air Quality AQ Index Pollutant
Not available.

Snow Depth

Station Depth Elevation

Earthquake Activity

City Distance Mag. Time & Date
Minimum magnitude displayed is 2.5.

Coastal Water Temperatures

Place Temperature

Stations

Nearby Weather Stations

Station Location Temp. Windchill Dew Point Humidity Wind Precip. Elev Updated Type